Time;durP1;ratioP1;P1;durP2;ratioP2;P2;SDS_P1;SDS_P2;PMS_P1;PMS_P2;Temp;Humidity;BMP_temperature;BMP_pressure;BME280_temperature;BME280_humidity;BME280_pressure;Samples;Min_cycle;Max_cycle;Signal;HPM_P1;HPM_P2
2021/08/06 00:00:32;;;;;;;2.80;1.40;;;15.10;95.40;;;;;;6246980;23;20077;-71
2021/08/06 00:02:58;;;;;;;6.32;1.63;;;15.00;95.50;;;;;;6248183;23;20023;-70
2021/08/06 00:05:23;;;;;;;2.97;1.40;;;14.90;95.80;;;;;;6248727;23;20012;-69
2021/08/06 00:07:49;;;;;;;3.25;1.60;;;14.90;96.00;;;;;;6248364;23;20004;-69
2021/08/06 00:10:15;;;;;;;3.05;1.60;;;14.80;96.40;;;;;;6248442;23;20011;-70
2021/08/06 00:12:41;;;;;;;3.45;1.80;;;14.70;96.60;;;;;;6248518;23;20005;-71
2021/08/06 00:15:07;;;;;;;4.30;1.77;;;14.80;96.60;;;;;;6247037;23;20008;-70
2021/08/06 00:17:34;;;;;;;4.05;1.70;;;15.00;96.20;;;;;;6248582;23;20070;-71
2021/08/06 00:19:59;;;;;;;3.42;1.50;;;15.00;96.20;;;;;;6248364;23;19997;-70
2021/08/06 00:22:25;;;;;;;3.58;1.63;;;14.90;96.20;;;;;;6248352;23;20066;-70
2021/08/06 00:24:51;;;;;;;5.28;1.65;;;14.90;96.20;;;;;;6248202;23;20004;-70
2021/08/06 00:27:16;;;;;;;4.78;1.88;;;14.90;96.40;;;;;;6221203;23;20008;-71
2021/08/06 00:29:42;;;;;;;3.00;1.38;;;14.90;96.40;;;;;;6246933;23;20005;-70
2021/08/06 00:32:08;;;;;;;6.00;1.50;;;14.80;96.60;;;;;;6248441;23;20004;-70
2021/08/06 00:34:34;;;;;;;3.22;1.58;;;14.80;96.40;;;;;;6248397;23;20004;-70
2021/08/06 00:37:01;;;;;;;4.10;1.52;;;14.90;96.70;;;;;;6248274;23;20001;-72
2021/08/06 00:39:27;;;;;;;4.00;1.55;;;14.80;96.60;;;;;;6247959;23;20075;-69
2021/08/06 00:41:53;;;;;;;2.78;1.40;;;14.80;96.80;;;;;;6248200;23;20034;-70
2021/08/06 00:44:18;;;;;;;4.30;1.77;;;14.80;96.80;;;;;;6246551;23;20011;-70
2021/08/06 00:46:44;;;;;;;4.28;1.60;;;14.80;96.80;;;;;;6248376;23;20008;-70
2021/08/06 00:49:10;;;;;;;3.33;1.42;;;14.90;96.50;;;;;;6248393;23;20000;-70
2021/08/06 00:51:36;;;;;;;3.22;1.83;;;15.00;96.20;;;;;;6248087;23;20362;-71
2021/08/06 00:54:04;;;;;;;4.20;1.58;;;14.90;96.50;;;;;;6248293;23;20386;-70
2021/08/06 00:56:30;;;;;;;5.85;1.50;;;14.70;96.80;;;;;;6247890;23;20067;-70
2021/08/06 00:58:55;;;;;;;3.63;1.70;;;14.50;97.20;;;;;;6248455;23;20024;-71
2021/08/06 01:01:23;;;;;;;3.10;1.60;;;14.40;97.30;;;;;;6246834;23;20074;-70
2021/08/06 01:04:12;;;;;;;3.17;1.52;;;14.20;97.50;;;;;;6248048;23;20059;-71
2021/08/06 01:07:06;;;;;;;4.65;2.40;;;14.00;97.70;;;;;;6248021;23;19997;-70
2021/08/06 01:09:51;;;;;;;4.72;2.20;;;13.90;97.80;;;;;;6248448;23;20005;-71
2021/08/06 01:12:23;;;;;;;3.60;1.70;;;13.90;98.00;;;;;;6247944;23;20521;-70
2021/08/06 01:14:50;;;;;;;5.78;2.13;;;13.80;98.00;;;;;;6246435;23;20269;-71
2021/08/06 01:17:17;;;;;;;3.60;1.95;;;13.80;98.00;;;;;;6248020;23;20004;-71
2021/08/06 01:20:01;;;;;;;3.83;2.00;;;13.80;98.00;;;;;;6248276;23;20317;-71
2021/08/06 01:22:40;;;;;;;;;;;13.90;98.00;;;;;;6221852;23;20000;-71
2021/08/06 01:25:15;;;;;;;4.90;1.90;;;13.90;98.00;;;;;;6221365;23;19978;-70
2021/08/06 01:27:44;;;;;;;3.15;1.70;;;13.80;98.00;;;;;;6248031;23;20494;-72
2021/08/06 01:30:11;;;;;;;4.28;2.08;;;13.90;98.00;;;;;;6246588;23;20004;-71
2021/08/06 01:32:37;;;;;;;3.83;2.00;;;13.90;98.00;;;;;;6248242;23;20003;-71
2021/08/06 01:35:07;;;;;;;5.25;1.80;;;13.90;98.00;;;;;;6247810;23;20005;-70
2021/08/06 01:37:32;;;;;;;4.00;2.00;;;13.90;98.00;;;;;;6249691;23;20067;-71
2021/08/06 01:40:00;;;;;;;3.75;1.75;;;14.00;97.90;;;;;;6249531;23;20031;-70
2021/08/06 01:42:45;;;;;;;5.13;2.28;;;14.10;97.90;;;;;;6249972;23;20075;-70
2021/08/06 01:45:17;;;;;;;3.47;2.00;;;14.40;97.50;;;;;;6248105;23;20282;-70
2021/08/06 01:47:49;;;;;;;4.72;2.20;;;14.60;97.20;;;;;;6249797;23;20008;-70
2021/08/06 01:50:40;;;;;;;3.83;2.03;;;14.70;97.10;;;;;;6249886;23;20004;-70
2021/08/06 01:53:15;;;;;;;4.38;1.80;;;14.80;96.80;;;;;;6249976;23;20355;-70
2021/08/06 01:56:04;;;;;;;4.13;2.10;;;14.80;96.70;;;;;;6249879;23;20523;-70
2021/08/06 01:58:30;;;;;;;3.80;1.90;;;14.80;96.70;;;;;;6249501;23;20530;-70
2021/08/06 02:00:57;;;;;;;9.07;2.00;;;14.80;96.60;;;;;;6248465;23;20000;-70
2021/08/06 02:03:23;;;;;;;6.82;2.00;;;14.90;96.30;;;;;;6249579;23;20473;-69
2021/08/06 02:05:51;;;;;;;3.88;1.75;;;14.90;96.20;;;;;;6249915;23;20010;-71
2021/08/06 02:08:19;;;;;;;3.60;1.88;;;15.00;96.00;;;;;;6251032;23;20011;-70
2021/08/06 02:10:45;;;;;;;3.70;1.60;;;15.00;95.80;;;;;;6249692;23;20004;-73
2021/08/06 02:13:13;;;;;;;3.13;1.48;;;15.10;95.60;;;;;;6249728;23;20004;-70
2021/08/06 02:15:41;;;;;;;3.70;1.90;;;15.10;95.50;;;;;;6247998;23;20392;-71
2021/08/06 02:18:16;;;;;;;5.05;2.08;;;15.20;95.40;;;;;;6249465;23;20007;-71
2021/08/06 02:20:43;;;;;;;;;;;15.20;95.30;;;;;;6250736;23;20004;-70
2021/08/06 02:23:09;;;;;;;4.40;1.80;;;15.20;95.60;;;;;;6222537;23;19900;-70
2021/08/06 02:25:37;;;;;;;3.67;1.65;;;15.20;95.40;;;;;;6250385;23;20000;-71
2021/08/06 02:28:04;;;;;;;3.70;1.58;;;15.20;95.20;;;;;;6249894;23;20304;-70
2021/08/06 02:30:31;;;;;;;3.70;1.80;;;15.20;95.30;;;;;;6248535;23;20004;-71
2021/08/06 02:32:58;;;;;;;3.83;1.70;;;15.20;94.90;;;;;;6250605;23;20004;-70
2021/08/06 02:35:25;;;;;;;2.75;1.52;;;15.30;94.60;;;;;;6249750;23;20004;-71
2021/08/06 02:37:50;;;;;;;6.03;1.55;;;15.30;94.60;;;;;;6250377;23;20000;-71
2021/08/06 02:40:16;;;;;;;6.22;2.00;;;15.30;94.50;;;;;;6249573;23;20067;-71
2021/08/06 02:42:42;;;;;;;3.10;1.50;;;15.30;94.60;;;;;;6249974;23;19996;-71
2021/08/06 02:45:09;;;;;;;5.22;1.90;;;15.30;94.70;;;;;;6248674;23;20082;-72
2021/08/06 02:47:35;;;;;;;4.43;1.77;;;15.30;94.70;;;;;;6249622;23;20000;-72
2021/08/06 02:50:00;;;;;;;3.72;1.60;;;15.20;94.60;;;;;;6249873;23;20012;-71
2021/08/06 02:52:26;;;;;;;3.25;1.60;;;15.20;94.70;;;;;;6250596;23;20007;-71
2021/08/06 02:54:52;;;;;;;4.35;1.70;;;15.20;94.70;;;;;;6249980;23;20071;-72
2021/08/06 02:57:18;;;;;;;4.18;1.75;;;15.20;95.10;;;;;;6250280;23;20308;-72
2021/08/06 02:59:43;;;;;;;3.85;1.98;;;15.20;94.70;;;;;;6221989;23;20439;-71
2021/08/06 03:02:09;;;;;;;6.13;1.77;;;15.20;94.90;;;;;;6250478;23;20083;-71
2021/08/06 03:04:35;;;;;;;3.08;1.70;;;15.20;95.10;;;;;;6250505;23;20004;-71
2021/08/06 03:07:00;;;;;;;5.22;1.83;;;15.20;95.20;;;;;;6249552;23;20000;-71
2021/08/06 03:09:26;;;;;;;3.22;1.67;;;15.10;95.30;;;;;;6250515;23;20362;-71
2021/08/06 03:11:52;;;;;;;3.65;1.42;;;15.10;95.30;;;;;;6249276;23;20079;-71
2021/08/06 03:14:18;;;;;;;3.50;1.83;;;15.00;95.50;;;;;;6247754;23;20032;-69
2021/08/06 03:16:43;;;;;;;3.40;1.70;;;15.00;95.40;;;;;;6250250;23;20004;-70
2021/08/06 03:19:09;;;;;;;3.72;1.92;;;15.10;95.20;;;;;;6249988;23;20019;-70
2021/08/06 03:21:34;;;;;;;5.28;2.00;;;15.20;95.30;;;;;;6249707;23;20027;-71
2021/08/06 03:24:00;;;;;;;4.00;1.80;;;15.20;95.10;;;;;;6249712;23;20026;-73
2021/08/06 03:26:26;;;;;;;3.20;1.60;;;15.30;95.10;;;;;;6249536;23;20036;-72
2021/08/06 03:28:52;;;;;;;4.25;1.65;;;15.40;95.40;;;;;;6249846;23;20007;-72
2021/08/06 03:31:17;;;;;;;5.35;1.75;;;15.30;96.00;;;;;;6248050;23;20071;-71
2021/08/06 03:33:43;;;;;;;3.50;1.77;;;15.20;96.40;;;;;;6250120;23;20086;-71
2021/08/06 03:36:10;;;;;;;4.20;1.75;;;15.10;97.20;;;;;;6249071;23;20050;-73
2021/08/06 03:38:36;;;;;;;3.67;1.75;;;14.90;97.30;;;;;;6249756;23;20362;-71
2021/08/06 03:41:02;;;;;;;4.38;2.00;;;14.80;97.60;;;;;;6249457;23;20003;-71
2021/08/06 03:43:27;;;;;;;4.65;2.00;;;14.60;97.90;;;;;;6249806;23;20007;-72
2021/08/06 03:45:53;;;;;;;3.90;2.03;;;14.50;98.00;;;;;;6221844;23;20271;-72
2021/08/06 03:48:19;;;;;;;4.10;1.98;;;14.30;98.00;;;;;;6249540;23;20004;-71
2021/08/06 03:50:44;;;;;;;4.30;2.40;;;14.20;98.00;;;;;;6249949;23;20367;-71
2021/08/06 03:53:10;;;;;;;4.18;2.22;;;14.00;98.00;;;;;;6249708;23;20000;-71
2021/08/06 03:55:36;;;;;;;5.22;2.20;;;14.00;98.00;;;;;;6249482;23;20075;-72
2021/08/06 03:58:03;;;;;;;3.92;2.10;;;13.90;98.00;;;;;;6249616;23;20362;-71
2021/08/06 04:00:32;;;;;;;3.97;2.40;;;13.90;98.00;;;;;;6247322;23;20003;-72
2021/08/06 04:02:58;;;;;;;4.60;2.20;;;13.80;98.00;;;;;;6250000;23;20308;-71
2021/08/06 04:05:24;;;;;;;6.45;2.72;;;13.80;98.00;;;;;;6248945;23;20004;-72
2021/08/06 04:07:49;;;;;;;6.57;2.75;;;13.80;98.00;;;;;;6249526;23;20042;-71
2021/08/06 04:10:18;;;;;;;4.75;2.60;;;13.80;98.00;;;;;;6248233;23;20004;-72
2021/08/06 04:12:46;;;;;;;4.85;2.50;;;13.80;98.00;;;;;;6249563;23;20036;-71
2021/08/06 04:15:13;;;;;;;4.18;2.17;;;13.80;98.00;;;;;;6247903;23;20015;-71
2021/08/06 04:17:38;;;;;;;4.60;2.40;;;13.80;98.00;;;;;;6222907;23;20007;-71
2021/08/06 04:20:05;;;;;;;5.50;2.45;;;13.90;98.00;;;;;;6249223;23;20008;-71
2021/08/06 04:22:30;;;;;;;5.97;2.25;;;13.90;98.00;;;;;;6249527;23;20023;-70
2021/08/06 04:24:56;;;;;;;5.97;2.50;;;14.00;98.00;;;;;;6248804;23;20000;-71
2021/08/06 04:27:22;;;;;;;6.05;2.10;;;14.00;98.00;;;;;;6249744;23;20015;-71
2021/08/06 04:29:47;;;;;;;3.78;1.85;;;14.10;98.00;;;;;;6247731;23;20007;-71
2021/08/06 04:32:13;;;;;;;7.90;2.28;;;14.10;98.00;;;;;;6249158;23;20008;-71
2021/08/06 04:34:38;;;;;;;4.95;1.90;;;14.20;98.00;;;;;;6249059;23;20011;-72
2021/08/06 04:37:04;;;;;;;3.80;2.05;;;14.20;98.00;;;;;;6249103;23;20008;-71
2021/08/06 04:39:30;;;;;;;5.53;2.30;;;14.20;98.00;;;;;;6222548;23;20004;-71
2021/08/06 04:41:55;;;;;;;4.60;2.10;;;14.30;98.00;;;;;;6249403;23;20000;-71
2021/08/06 04:44:24;;;;;;;4.15;2.13;;;14.30;98.00;;;;;;6246910;23;20008;-71
2021/08/06 04:46:49;;;;;;;4.07;2.00;;;14.40;98.00;;;;;;6249202;23;20019;-72
2021/08/06 04:49:18;;;;;;;4.05;2.30;;;14.50;98.00;;;;;;6248781;23;20309;-71
2021/08/06 04:51:46;;;;;;;4.70;2.20;;;14.40;98.00;;;;;;6248977;23;20008;-71
2021/08/06 04:54:12;;;;;;;5.78;2.45;;;14.40;98.00;;;;;;6249394;23;20004;-71
2021/08/06 04:56:39;;;;;;;4.18;2.58;;;14.40;98.00;;;;;;6248753;23;20007;-71
2021/08/06 04:59:05;;;;;;;5.38;2.58;;;14.20;98.00;;;;;;6248820;23;20257;-72
2021/08/06 05:01:31;;;;;;;6.88;2.33;;;14.20;98.00;;;;;;6246607;23;20003;-72
2021/08/06 05:03:57;;;;;;;7.45;3.00;;;14.00;98.00;;;;;;6247908;23;20031;-72
2021/08/06 05:06:23;;;;;;;4.47;2.53;;;14.00;98.00;;;;;;6248396;23;19997;-72
2021/08/06 05:08:49;;;;;;;4.45;2.40;;;13.90;98.00;;;;;;6248844;23;20270;-72
2021/08/06 05:11:17;;;;;;;4.35;2.45;;;13.90;98.00;;;;;;6249870;23;20073;-72
2021/08/06 05:13:43;;;;;;;6.00;2.42;;;13.90;98.00;;;;;;6250856;23;20087;-74
2021/08/06 05:16:09;;;;;;;4.65;2.65;;;13.90;98.00;;;;;;6249740;23;20279;-73
2021/08/06 05:18:36;;;;;;;4.60;2.70;;;13.90;98.00;;;;;;6250781;23;20000;-73
2021/08/06 05:21:02;;;;;;;3.88;2.22;;;13.90;98.00;;;;;;6250045;23;20004;-73
2021/08/06 05:23:27;;;;;;;3.60;1.88;;;13.90;98.00;;;;;;6224347;23;20015;-73
2021/08/06 05:25:53;;;;;;;4.70;2.45;;;13.90;97.90;;;;;;6224046;23;20373;-73
2021/08/06 05:28:19;;;;;;;4.07;1.90;;;13.90;97.60;;;;;;6250558;23;19996;-73
2021/08/06 05:30:45;;;;;;;3.15;1.75;;;14.00;98.00;;;;;;6249417;23;20000;-73
2021/08/06 05:33:10;;;;;;;3.03;1.55;;;14.10;98.00;;;;;;6250581;23;20100;-73
2021/08/06 05:35:38;;;;;;;3.45;1.60;;;14.20;98.00;;;;;;6249199;23;20385;-73
2021/08/06 05:38:04;;;;;;;3.45;1.80;;;14.20;98.00;;;;;;6250371;23;20000;-73
2021/08/06 05:40:32;;;;;;;2.60;1.40;;;14.30;98.00;;;;;;6249926;23;20112;-73
2021/08/06 05:42:57;;;;;;;2.85;1.30;;;14.30;98.00;;;;;;6223972;23;20000;-73
2021/08/06 05:45:24;;;;;;;2.90;1.27;;;14.40;98.00;;;;;;6248881;23;20024;-73
2021/08/06 05:47:52;;;;;;;2.92;1.15;;;14.50;98.00;;;;;;6223028;23;20008;-73
2021/08/06 05:50:19;;;;;;;1.83;1.10;;;14.50;98.00;;;;;;6249884;23;20094;-73
2021/08/06 05:52:46;;;;;;;2.95;1.40;;;14.60;98.00;;;;;;6250237;23;20071;-72
2021/08/06 05:55:13;;;;;;;2.25;1.13;;;14.70;98.00;;;;;;6223696;23;20007;-72
2021/08/06 05:57:38;;;;;;;2.38;1.10;;;14.80;98.00;;;;;;6223062;23;20089;-72
2021/08/06 06:00:06;;;;;;;2.13;1.17;;;14.90;98.00;;;;;;6249488;23;20317;-73
2021/08/06 06:02:32;;;;;;;1.92;1.00;;;15.00;98.00;;;;;;6250232;23;20004;-72
2021/08/06 06:04:58;;;;;;;1.85;0.98;;;15.10;98.00;;;;;;6250469;23;20400;-75
2021/08/06 06:07:23;;;;;;;2.03;1.00;;;15.20;98.00;;;;;;6250789;23;20353;-72
2021/08/06 06:09:50;;;;;;;2.22;1.15;;;15.30;98.00;;;;;;6250437;23;20083;-73
2021/08/06 06:12:16;;;;;;;2.65;1.13;;;15.50;98.00;;;;;;6250202;23;20261;-73
2021/08/06 06:14:42;;;;;;;2.97;1.30;;;15.70;98.00;;;;;;6248594;23;20000;-73
2021/08/06 06:17:08;;;;;;;2.13;1.08;;;15.60;98.00;;;;;;6250828;23;20000;-72
2021/08/06 06:19:33;;;;;;;3.47;1.40;;;15.60;98.00;;;;;;6250383;23;20010;-73
2021/08/06 06:21:59;;;;;;;1.98;1.10;;;15.60;98.00;;;;;;6250796;23;20003;-74
2021/08/06 06:24:25;;;;;;;2.28;1.20;;;15.70;98.00;;;;;;6223913;23;20015;-73
2021/08/06 06:26:53;;;;;;;3.08;1.20;;;15.70;98.00;;;;;;6250287;23;20000;-73
2021/08/06 06:29:19;;;;;;;2.53;1.20;;;15.70;98.00;;;;;;6248545;23;20361;-72
2021/08/06 06:31:44;;;;;;;2.50;1.15;;;15.80;98.00;;;;;;6250286;23;20007;-72
2021/08/06 06:34:10;;;;;;;4.43;1.30;;;15.90;97.80;;;;;;6249956;23;20014;-72
2021/08/06 06:36:35;;;;;;;2.53;0.93;;;15.90;97.40;;;;;;6250301;23;20079;-72
2021/08/06 06:39:01;;;;;;;2.40;0.95;;;15.90;97.60;;;;;;6250689;23;20091;-74
2021/08/06 06:41:27;;;;;;;2.65;1.25;;;15.90;97.60;;;;;;6249028;23;20373;-73
2021/08/06 06:43:52;;;;;;;2.20;1.20;;;16.00;97.70;;;;;;6248548;23;20354;-73
2021/08/06 06:46:18;;;;;;;4.32;1.90;;;16.10;97.50;;;;;;6248776;23;20004;-73
2021/08/06 06:48:44;;;;;;;3.50;1.40;;;16.20;97.20;;;;;;6249689;23;20421;-72
2021/08/06 06:51:09;;;;;;;2.92;1.50;;;16.30;97.50;;;;;;6250348;23;20003;-73
2021/08/06 06:53:35;;;;;;;3.97;1.60;;;16.40;97.50;;;;;;6224001;23;20032;-73
2021/08/06 06:56:00;;;;;;;4.43;1.60;;;16.50;97.30;;;;;;6249747;23;20000;-72
2021/08/06 06:58:26;;;;;;;3.80;1.83;;;16.60;96.90;;;;;;6250163;23;20046;-73
2021/08/06 07:00:52;;;;;;;4.05;1.48;;;16.80;97.10;;;;;;6248464;23;20004;-72
2021/08/06 07:03:17;;;;;;;3.75;1.80;;;17.00;95.40;;;;;;6249712;23;20000;-73
2021/08/06 07:05:43;;;;;;;3.35;1.55;;;17.40;94.90;;;;;;6249493;23;20008;-73
2021/08/06 07:08:09;;;;;;;6.38;1.70;;;17.70;94.30;;;;;;6250307;23;20082;-73
2021/08/06 07:10:34;;;;;;;5.57;1.90;;;17.40;93.80;;;;;;6222566;23;20028;-73
2021/08/06 07:13:00;;;;;;;4.47;1.52;;;17.10;95.10;;;;;;6249979;23;20058;-73
2021/08/06 07:15:26;;;;;;;4.13;1.60;;;17.00;96.40;;;;;;6248108;23;20000;-73
2021/08/06 07:17:52;;;;;;;3.72;1.63;;;16.50;96.40;;;;;;6248989;23;19996;-73
2021/08/06 07:20:19;;;;;;;4.38;1.83;;;16.20;96.90;;;;;;6249949;23;20001;-73
2021/08/06 07:22:46;;;;;;;4.40;1.60;;;16.20;97.50;;;;;;6249713;23;20480;-72
2021/08/06 07:25:13;;;;;;;3.50;1.85;;;16.40;97.40;;;;;;6249541;23;20047;-72
2021/08/06 07:27:41;;;;;;;4.50;1.63;;;16.70;96.70;;;;;;6250044;23;20010;-72
2021/08/06 07:30:08;;;;;;;4.05;1.48;;;16.80;95.60;;;;;;6247905;23;20006;-72
2021/08/06 07:32:34;;;;;;;2.95;1.30;;;16.80;95.30;;;;;;6249560;23;20008;-73
2021/08/06 07:35:00;;;;;;;3.38;1.38;;;16.90;95.60;;;;;;6249697;23;20054;-72
2021/08/06 07:37:26;;;;;;;4.97;1.60;;;17.00;94.90;;;;;;6249734;23;20000;-72
2021/08/06 07:39:52;;;;;;;4.15;1.60;;;17.00;94.50;;;;;;6249629;23;20008;-72
2021/08/06 07:42:18;;;;;;;3.95;1.50;;;17.10;94.50;;;;;;6249687;23;20260;-72
2021/08/06 07:44:45;;;;;;;3.60;1.20;;;17.20;94.70;;;;;;6220710;23;20306;-72
2021/08/06 07:47:11;;;;;;;4.68;1.35;;;17.20;94.70;;;;;;6249788;23;20000;-71
2021/08/06 07:49:39;;;;;;;3.42;1.17;;;17.30;93.50;;;;;;6249829;23;19996;-71
2021/08/06 07:52:05;;;;;;;3.72;1.40;;;17.30;93.90;;;;;;6249958;23;20006;-71
2021/08/06 07:54:31;;;;;;;3.78;1.42;;;17.40;93.50;;;;;;6249844;23;20264;-72
2021/08/06 07:56:56;;;;;;;3.03;1.17;;;17.50;93.70;;;;;;6250129;23;19996;-72
2021/08/06 07:59:22;;;;;;;5.35;1.40;;;17.80;92.70;;;;;;6248207;23;20008;-72
2021/08/06 08:01:48;;;;;;;3.72;1.40;;;18.80;90.20;;;;;;6249475;23;19996;-72
2021/08/06 08:04:13;;;;;;;2.95;1.20;;;19.00;89.50;;;;;;6249859;23;20058;-72
2021/08/06 08:06:39;;;;;;;2.58;1.10;;;19.60;88.10;;;;;;6249634;23;20353;-72
2021/08/06 08:09:05;;;;;;;2.50;0.98;;;20.40;84.60;;;;;;6249589;23;20392;-72
2021/08/06 08:11:31;;;;;;;3.83;1.13;;;20.90;83.40;;;;;;6249423;23;20007;-72
2021/08/06 08:13:56;;;;;;;1.90;0.95;;;21.00;82.40;;;;;;6249346;23;20004;-72
2021/08/06 08:16:22;;;;;;;5.35;1.05;;;20.70;82.50;;;;;;6247767;23;19996;-72
2021/08/06 08:18:48;;;;;;;1.70;0.98;;;20.60;84.00;;;;;;6222996;23;20000;-72
2021/08/06 08:21:16;;;;;;;3.40;1.25;;;20.60;84.80;;;;;;6249540;23;20079;-72
2021/08/06 08:23:42;;;;;;;2.38;1.00;;;21.60;82.90;;;;;;6249457;23;20000;-72
2021/08/06 08:26:07;;;;;;;2.75;1.15;;;21.00;81.40;;;;;;6249384;23;20076;-72
2021/08/06 08:28:33;;;;;;;3.03;1.10;;;19.90;84.30;;;;;;6249309;23;20015;-73
2021/08/06 08:31:02;;;;;;;1.65;0.80;;;20.60;84.00;;;;;;6247814;23;20000;-72
2021/08/06 08:33:27;;;;;;;2.35;1.00;;;20.40;83.10;;;;;;6249305;23;20000;-72
2021/08/06 08:35:53;;;;;;;1.92;1.00;;;19.90;84.60;;;;;;6249605;23;20043;-72
2021/08/06 08:38:19;;;;;;;2.22;0.93;;;20.60;83.80;;;;;;6249425;23;20046;-73
2021/08/06 08:40:45;;;;;;;2.25;1.10;;;20.50;82.10;;;;;;6249149;23;20007;-72
2021/08/06 08:43:11;;;;;;;1.67;0.77;;;20.10;84.10;;;;;;6249393;23;20004;-73
2021/08/06 08:45:41;;;;;;;1.88;0.90;;;19.60;86.20;;;;;;6247000;23;20016;-73
2021/08/06 08:48:12;;;;;;;2.15;0.98;;;20.30;83.40;;;;;;6249338;23;20004;-72
2021/08/06 08:50:40;;;;;;;2.40;1.10;;;20.60;81.60;;;;;;6249189;23;20004;-72
2021/08/06 08:53:07;;;;;;;2.53;1.05;;;20.90;80.30;;;;;;6248975;23;20004;-72
2021/08/06 08:55:33;;;;;;;2.13;0.93;;;20.30;80.50;;;;;;6248679;23;20014;-72
2021/08/06 08:57:59;;;;;;;2.80;0.90;;;20.40;81.60;;;;;;6248828;23;19996;-71
2021/08/06 09:00:25;;;;;;;1.85;0.85;;;21.40;78.80;;;;;;6247346;23;19996;-72
2021/08/06 09:02:51;;;;;;;3.72;0.90;;;21.80;76.30;;;;;;6249549;23;20361;-72
2021/08/06 09:05:24;;;;;;;3.75;1.13;;;20.90;77.90;;;;;;6249034;23;20119;-72
2021/08/06 09:07:50;;;;;;;2.83;0.90;;;21.40;77.20;;;;;;6248577;23;20273;-72
2021/08/06 09:10:20;;;;;;;2.80;0.90;;;22.40;76.40;;;;;;6248623;23;20007;-73
2021/08/06 09:12:53;;;;;;;1.80;0.90;;;22.80;73.80;;;;;;6248894;23;20004;-72
2021/08/06 09:15:42;;;;;;;2.85;0.90;;;22.10;74.60;;;;;;6220868;23;20004;-72
2021/08/06 09:18:28;;;;;;;2.50;0.90;;;21.00;76.10;;;;;;6248769;23;20000;-72
2021/08/06 09:20:59;;;;;;;2.08;0.85;;;19.90;79.60;;;;;;6249108;23;20011;-72
2021/08/06 09:23:37;;;;;;;3.78;1.10;;;19.40;82.00;;;;;;6249311;23;20022;-72
2021/08/06 09:26:03;;;;;;;3.28;1.23;;;19.30;82.60;;;;;;6248742;23;20358;-72
2021/08/06 09:28:29;;;;;;;2.60;0.93;;;19.10;82.10;;;;;;6249008;23;20069;-72
2021/08/06 09:30:55;;;;;;;4.95;1.30;;;19.10;83.70;;;;;;6247634;23;20397;-73
2021/08/06 09:33:31;;;;;;;2.53;1.10;;;19.20;83.70;;;;;;6249376;23;20004;-72
2021/08/06 09:36:17;;;;;;;7.28;1.20;;;19.10;83.30;;;;;;6248914;23;20007;-72
2021/08/06 09:38:43;;;;;;;2.83;1.02;;;19.00;83.10;;;;;;6248870;23;20001;-72
2021/08/06 09:41:29;;;;;;;3.60;1.00;;;19.00;83.40;;;;;;6249208;23;20287;-72
2021/08/06 09:44:17;;;;;;;2.55;0.98;;;19.30;81.60;;;;;;6221557;23;20004;-72
2021/08/06 09:46:45;;;;;;;2.80;1.05;;;19.80;81.30;;;;;;6249082;23;20012;-72
2021/08/06 09:49:11;;;;;;;2.22;0.95;;;20.00;80.40;;;;;;6248664;23;20007;-72
2021/08/06 09:51:42;;;;;;;2.03;1.00;;;19.90;79.00;;;;;;6249034;23;20000;-72
2021/08/06 09:54:28;;;;;;;5.18;1.23;;;20.10;80.30;;;;;;6247925;23;20030;-72
2021/08/06 09:57:09;;;;;;;10.45;1.20;;;20.40;78.50;;;;;;6249111;23;20007;-72
2021/08/06 09:59:36;;;;;;;3.25;1.02;;;20.20;78.80;;;;;;6249482;23;20036;-72
2021/08/06 10:02:22;;;;;;;2.40;1.30;;;20.40;80.00;;;;;;6250856;23;20000;-72
2021/08/06 10:05:06;;;;;;;4.47;1.52;;;20.50;78.10;;;;;;6250846;23;20366;-72
2021/08/06 10:07:37;;;;;;;3.85;1.10;;;20.10;79.20;;;;;;6224052;23;20320;-72
2021/08/06 10:10:06;;;;;;;5.25;1.70;;;19.90;79.70;;;;;;6250992;23;20103;-72
2021/08/06 10:12:32;;;;;;;3.13;1.35;;;19.70;80.10;;;;;;6250330;23;20126;-72
2021/08/06 10:14:58;;;;;;;2.90;1.02;;;19.90;80.30;;;;;;6248873;23;20036;-72
2021/08/06 10:17:23;;;;;;;7.93;2.17;;;20.20;80.50;;;;;;6250575;23;20004;-72
2021/08/06 10:19:50;;;;;;;6.22;1.30;;;20.40;79.70;;;;;;6250707;23;20023;-72
2021/08/06 10:22:16;;;;;;;3.50;1.30;;;20.40;80.10;;;;;;6250332;23;19996;-72
2021/08/06 10:24:48;;;;;;;2.45;1.10;;;20.20;81.10;;;;;;6249921;23;20039;-72
2021/08/06 10:27:19;;;;;;;6.72;1.27;;;20.30;81.30;;;;;;6250097;23;20004;-72
2021/08/06 10:30:00;;;;;;;3.67;1.40;;;20.60;79.60;;;;;;6248963;23;20008;-71
2021/08/06 10:32:26;;;;;;;2.40;1.10;;;21.00;79.70;;;;;;6250653;23;20007;-72
2021/08/06 10:35:17;;;;;;;3.33;1.33;;;20.50;77.70;;;;;;6250012;23;20008;-72
2021/08/06 10:37:48;;;;;;;4.38;1.33;;;20.30;78.40;;;;;;6235745;22;20008;-71
2021/08/06 10:40:38;;;;;;;10.82;2.88;;;20.10;79.30;;;;;;6250171;23;20011;-71
2021/08/06 10:43:10;;;;;;;3.13;1.10;;;19.90;80.30;;;;;;6250137;23;19996;-71
2021/08/06 10:45:48;;;;;;;5.35;1.63;;;20.00;80.40;;;;;;6248122;23;20087;-71
2021/08/06 10:48:31;;;;;;;6.28;1.73;;;20.40;79.70;;;;;;6250074;23;20095;-71
2021/08/06 10:51:15;;;;;;;7.60;3.55;;;20.70;79.00;;;;;;6250401;23;20000;-72
2021/08/06 10:54:03;;;;;;;5.47;2.72;;;21.10;78.50;;;;;;6250326;23;20262;-72
2021/08/06 10:56:34;;;;;;;4.15;1.35;;;21.10;76.60;;;;;;6250257;23;20266;-72
2021/08/06 10:59:11;;;;;;;7.72;1.30;;;20.90;77.50;;;;;;6250703;23;20000;-72
2021/08/06 11:01:49;;;;;;;2.45;1.02;;;20.60;78.20;;;;;;6250351;23;20006;-72
2021/08/06 11:04:16;;;;;;;4.18;1.20;;;20.70;79.20;;;;;;6222987;23;20368;-71
2021/08/06 11:06:47;;;;;;;2.60;1.20;;;20.60;77.80;;;;;;6249843;23;20342;-71
2021/08/06 11:11:58;;;;;;;3.00;1.10;;;20.80;77.30;;;;;;6250630;23;20008;-71
2021/08/06 11:14:30;;;;;;;4.45;1.40;;;20.40;77.00;;;;;;6248006;23;20011;-72
2021/08/06 11:17:10;;;;;;;4.80;1.30;;;20.30;77.20;;;;;;6223202;23;20023;-71
2021/08/06 11:19:47;;;;;;;3.05;1.00;;;20.40;77.80;;;;;;6223842;23;20011;-72
2021/08/06 11:22:26;;;;;;;6.05;1.20;;;20.60;79.00;;;;;;6222944;23;20008;-71
2021/08/06 11:24:55;;;;;;;2.72;1.30;;;20.60;77.80;;;;;;6249958;23;20000;-71
2021/08/06 11:27:32;;;;;;;4.72;1.17;;;20.50;78.90;;;;;;6249706;23;20000;-71
2021/08/06 11:30:03;;;;;;;7.25;1.30;;;20.60;78.20;;;;;;6248625;23;20066;-71
2021/08/06 11:32:48;;;;;;;2.33;0.90;;;21.10;78.30;;;;;;6248659;23;20099;-71
2021/08/06 11:35:19;;;;;;;5.45;0.98;;;21.50;75.80;;;;;;6249818;23;20000;-71
2021/08/06 11:37:56;;;;;;;3.25;1.50;;;21.80;77.70;;;;;;6249893;23;20384;-71
2021/08/06 11:40:33;;;;;;;6.05;1.23;;;22.30;77.00;;;;;;6249652;23;20276;-71
2021/08/06 11:43:15;;;;;;;3.47;1.10;;;22.70;74.00;;;;;;6249860;23;20239;-72
2021/08/06 11:45:43;;;;;;;2.88;1.10;;;22.70;74.10;;;;;;6248227;23;20055;-71
2021/08/06 11:48:12;;;;;;;2.50;1.13;;;23.50;74.00;;;;;;6248613;23;20011;-72
2021/08/06 11:50:37;;;;;;;2.58;1.20;;;22.90;72.70;;;;;;6249887;23;20004;-71
2021/08/06 11:53:14;;;;;;;2.50;1.10;;;22.60;74.60;;;;;;6249365;23;20034;-73
2021/08/06 11:55:40;;;;;;;4.22;1.13;;;22.80;74.10;;;;;;6248694;23;20063;-71
2021/08/06 11:58:05;;;;;;;3.08;0.90;;;22.40;73.40;;;;;;6249694;23;20362;-72
2021/08/06 12:00:34;;;;;;;4.43;0.95;;;22.00;75.90;;;;;;6248115;23;19996;-72
2021/08/06 12:03:14;;;;;;;1.98;0.93;;;22.20;76.40;;;;;;6222611;23;20010;-71
2021/08/06 12:05:42;;;;;;;2.80;1.20;;;22.00;74.70;;;;;;6249870;23;20079;-71
2021/08/06 12:08:22;;;;;;;3.22;1.00;;;21.80;75.30;;;;;;6249502;23;20004;-71
2021/08/06 12:10:51;;;;;;;4.93;1.30;;;21.90;74.70;;;;;;6249178;23;20011;-71
2021/08/06 12:13:23;;;;;;;2.42;1.00;;;22.90;72.80;;;;;;6249791;23;20018;-72
2021/08/06 12:16:11;;;;;;;3.88;1.02;;;23.10;70.40;;;;;;6247083;23;20000;-70
2021/08/06 12:18:41;;;;;;;3.88;0.95;;;22.50;70.40;;;;;;6249482;23;20007;-71
2021/08/06 12:21:14;;;;;;;3.35;1.20;;;21.90;72.00;;;;;;6249204;23;20015;-71
2021/08/06 12:23:53;;;;;;;2.58;0.98;;;22.00;72.20;;;;;;6249504;23;20070;-71
2021/08/06 12:26:34;;;;;;;2.92;1.10;;;22.70;70.50;;;;;;6248876;23;20000;-70
2021/08/06 12:29:21;;;;;;;2.67;1.00;;;23.60;67.60;;;;;;6249394;23;20000;-70
2021/08/06 12:31:53;;;;;;;2.83;1.05;;;23.20;67.90;;;;;;6249640;23;20001;-70
2021/08/06 12:34:21;;;;;;;4.47;1.10;;;22.60;68.60;;;;;;6249513;23;20000;-70
2021/08/06 12:37:06;;;;;;;3.72;1.30;;;22.10;69.60;;;;;;6249679;23;19997;-71
2021/08/06 12:39:50;;;;;;;4.40;1.27;;;21.80;71.10;;;;;;6249103;23;20054;-71
2021/08/06 12:42:16;;;;;;;8.93;1.20;;;21.80;71.60;;;;;;6248380;23;19996;-70
2021/08/06 12:45:15;;;;;;;2.08;0.95;;;22.30;72.10;;;;;;6245927;23;20020;-70
2021/08/06 12:47:45;;;;;;;1.63;0.70;;;22.80;68.80;;;;;;6198368;23;20294;-71
2021/08/06 12:50:13;;;;;;;4.07;0.98;;;23.00;68.30;;;;;;6248303;23;20269;-70
2021/08/06 12:52:42;;;;;;;5.38;1.30;;;23.30;67.70;;;;;;6248608;23;20000;-70
2021/08/06 12:55:19;;;;;;;2.55;1.00;;;23.40;65.90;;;;;;6248943;23;20265;-70
2021/08/06 12:58:16;;;;;;;5.30;1.13;;;23.40;67.00;;;;;;6221834;23;20000;-71
2021/08/06 13:00:45;;;;;;;7.65;1.00;;;23.30;66.20;;;;;;6230839;23;20005;-71